Des Moines, IA (50312)

1:33 PM CDT on August 03, 2015 (GMT -0500)
Ghetto Meadows | | Change Station
CLOSE
Current Station
Personal Weather Station
Location: Des Moines, IA
Elevation: 900 ft
Nearby Weather Stations

Elev 900 ft 41.59 °N, 93.69 °W | Updated 12 seconds ago

Clear
Clear
77.7 °F
Feels Like 77.7 °F
N
0.0
Wind Variable Wind from NW
Gusts 0.0 mph

Today
High -- | Low -- °F
--% Chance of Precip.
Yesterday
High -- | Low -- °F
Precip. -- in
6:11 AM 8:30 PM
Waning Gibbous, 85% visible
Pressure 29.93 in
Visibility 10.0 miles
Clouds Few 5000 ft
Few 20000 ft
Few 30000 ft
Dew Point Not available.
Humidity Not available.
Rainfall 0.00 in
Snow Depth Not available.
UV 10 out of 12
Pollen 6.60 out of 12
Air Quality Not available.
Flu Activity Not available.
METAR KDSM 031754Z VRB05KT 10SM FEW050 FEW200 FEW300 27/13 A2995 RMK AO2 SLP133 CB DSNT S MOV SE T02720128 10272 20200 58006

More Conditions Fewer Conditions

Pressure 29.93 in
Visibility 10.0 miles
Clouds Few 5000 ft
Few 20000 ft
Few 30000 ft
Dew Point Not available.
Humidity Not available.
Rainfall 0.00 in
Snow Depth Not available.
UV 10 out of 12
Pollen 6.60 out of 12
Air Quality Not available.
Flu Activity Not available.
METAR KDSM 031754Z VRB05KT 10SM FEW050 FEW200 FEW300 27/13 A2995 RMK AO2 SLP133 CB DSNT S MOV SE T02720128 10272 20200 58006

More Conditions Fewer Conditions

10-Day Weather Forecast

×

Almanac

Astronomy

Aug. 03, 2015 Rise Set
Actual Time
Civil Twilight
Nautical Twilight
Astronomical Twilight
Moon
Length of Visible Light
Length of Day
Tomorrow will be .
, % of the Moon is Illuminated

Today's Extremes

State Highs State Lows

Community

WunderPhotos

Upload Photos

1,843,703 photos uploaded!

WunderBlogs® & News

Nearby

Air Quality

  Air Quality AQ Index Pollutant
Not available.

Snow Depth

Station Depth Elevation

Earthquake Activity

City Distance Mag. Time & Date
Minimum magnitude displayed is 2.5.

Coastal Water Temperatures

Place Temperature

Stations

Nearby Weather Stations

Station Location Temp. Windchill Dew Point Humidity Wind Precip. Elev Updated Type